sensor_id;sensor_type;location;lat;lon;timestamp;temperature;humidity
25983;DHT22;13773;48.868;10.730;2023-12-29T00:00:21;4.60;99.90
25983;DHT22;13773;48.868;10.730;2023-12-29T00:02:47;4.60;99.90
25983;DHT22;13773;48.868;10.730;2023-12-29T00:05:13;4.60;99.90
25983;DHT22;13773;48.868;10.730;2023-12-29T00:07:39;4.60;99.90
25983;DHT22;13773;48.868;10.730;2023-12-29T00:10:05;4.80;99.90
25983;DHT22;13773;48.868;10.730;2023-12-29T00:12:31;4.90;99.90
25983;DHT22;13773;48.868;10.730;2023-12-29T00:14:56;5.10;99.90
25983;DHT22;13773;48.868;10.730;2023-12-29T00:17:22;5.30;99.90
25983;DHT22;13773;48.868;10.730;2023-12-29T00:19:47;5.40;99.90
25983;DHT22;13773;48.868;10.730;2023-12-29T00:22:13;5.40;99.90
25983;DHT22;13773;48.868;10.730;2023-12-29T00:24:39;3.50;99.90
25983;DHT22;13773;48.868;10.730;2023-12-29T00:27:05;5.60;99.90
25983;DHT22;13773;48.868;10.730;2023-12-29T00:29:30;5.60;99.90
25983;DHT22;13773;48.868;10.730;2023-12-29T00:31:59;5.70;99.90
25983;DHT22;13773;48.868;10.730;2023-12-29T00:34:28;5.80;99.90
25983;DHT22;13773;48.868;10.730;2023-12-29T00:36:54;5.90;99.90
25983;DHT22;13773;48.868;10.730;2023-12-29T00:39:19;5.80;99.90
25983;DHT22;13773;48.868;10.730;2023-12-29T00:41:54;5.90;99.90
25983;DHT22;13773;48.868;10.730;2023-12-29T00:44:20;5.90;99.90
25983;DHT22;13773;48.868;10.730;2023-12-29T00:46:46;5.50;99.90
25983;DHT22;13773;48.868;10.730;2023-12-29T00:49:12;5.80;99.90
25983;DHT22;13773;48.868;10.730;2023-12-29T00:51:40;5.80;99.90
25983;DHT22;13773;48.868;10.730;2023-12-29T00:54:07;5.80;99.90
25983;DHT22;13773;48.868;10.730;2023-12-29T00:56:32;5.80;99.90
25983;DHT22;13773;48.868;10.730;2023-12-29T00:58:58;5.80;99.90
25983;DHT22;13773;48.868;10.730;2023-12-29T01:01:24;5.90;99.90
25983;DHT22;13773;48.868;10.730;2023-12-29T01:03:49;5.90;99.90
25983;DHT22;13773;48.868;10.730;2023-12-29T01:06:15;6.00;99.90
25983;DHT22;13773;48.868;10.730;2023-12-29T01:08:41;6.00;99.90
25983;DHT22;13773;48.868;10.730;2023-12-29T01:11:07;6.00;99.90
25983;DHT22;13773;48.868;10.730;2023-12-29T01:13:32;6.00;99.90
25983;DHT22;13773;48.868;10.730;2023-12-29T01:15:58;6.00;99.90
25983;DHT22;13773;48.868;10.730;2023-12-29T01:18:24;6.00;99.90
25983;DHT22;13773;48.868;10.730;2023-12-29T01:20:49;6.00;99.90
25983;DHT22;13773;48.868;10.730;2023-12-29T01:23:15;6.00;99.90
25983;DHT22;13773;48.868;10.730;2023-12-29T01:25:40;6.00;99.90
25983;DHT22;13773;48.868;10.730;2023-12-29T01:28:06;6.00;99.90
25983;DHT22;13773;48.868;10.730;2023-12-29T01:30:32;6.00;99.90
25983;DHT22;13773;48.868;10.730;2023-12-29T01:32:57;6.00;99.90
25983;DHT22;13773;48.868;10.730;2023-12-29T01:35:23;5.90;99.90
25983;DHT22;13773;48.868;10.730;2023-12-29T01:37:49;5.90;99.90
25983;DHT22;13773;48.868;10.730;2023-12-29T01:40:14;5.80;99.90
25983;DHT22;13773;48.868;10.730;2023-12-29T01:42:41;5.80;99.90
25983;DHT22;13773;48.868;10.730;2023-12-29T01:45:23;5.80;99.90
25983;DHT22;13773;48.868;10.730;2023-12-29T01:47:51;5.80;99.90
25983;DHT22;13773;48.868;10.730;2023-12-29T01:50:21;5.70;99.90
25983;DHT22;13773;48.868;10.730;2023-12-29T01:52:49;5.70;99.90
25983;DHT22;13773;48.868;10.730;2023-12-29T01:55:20;5.70;99.90
25983;DHT22;13773;48.868;10.730;2023-12-29T01:57:50;5.70;99.90
25983;DHT22;13773;48.868;10.730;2023-12-29T02:00:17;5.70;99.90
25983;DHT22;13773;48.868;10.730;2023-12-29T02:02:44;5.80;99.90
25983;DHT22;13773;48.868;10.730;2023-12-29T02:05:13;5.80;99.90
25983;DHT22;13773;48.868;10.730;2023-12-29T02:07:43;5.80;99.90
25983;DHT22;13773;48.868;10.730;2023-12-29T02:10:09;5.80;99.90
25983;DHT22;13773;48.868;10.730;2023-12-29T02:12:41;5.70;99.90
25983;DHT22;13773;48.868;10.730;2023-12-29T02:15:07;5.80;99.90
25983;DHT22;13773;48.868;10.730;2023-12-29T02:17:47;5.80;99.90
25983;DHT22;13773;48.868;10.730;2023-12-29T02:20:13;5.80;99.90
25983;DHT22;13773;48.868;10.730;2023-12-29T02:22:39;5.80;99.90
25983;DHT22;13773;48.868;10.730;2023-12-29T02:25:06;5.80;99.90
25983;DHT22;13773;48.868;10.730;2023-12-29T02:27:43;5.70;99.90
25983;DHT22;13773;48.868;10.730;2023-12-29T02:30:22;5.70;99.90
25983;DHT22;13773;48.868;10.730;2023-12-29T02:32:50;5.60;99.90
25983;DHT22;13773;48.868;10.730;2023-12-29T02:35:24;5.60;99.90
25983;DHT22;13773;48.868;10.730;2023-12-29T02:37:53;5.60;99.90
25983;DHT22;13773;48.868;10.730;2023-12-29T02:40:19;5.70;99.90
25983;DHT22;13773;48.868;10.730;2023-12-29T02:42:49;5.50;99.90
25983;DHT22;13773;48.868;10.730;2023-12-29T02:45:16;5.40;99.90
25983;DHT22;13773;48.868;10.730;2023-12-29T02:47:42;5.40;99.90
25983;DHT22;13773;48.868;10.730;2023-12-29T02:50:09;5.40;99.90
25983;DHT22;13773;48.868;10.730;2023-12-29T02:52:35;5.40;99.90
25983;DHT22;13773;48.868;10.730;2023-12-29T02:55:00;5.40;99.90
25983;DHT22;13773;48.868;10.730;2023-12-29T02:57:26;5.30;99.90
25983;DHT22;13773;48.868;10.730;2023-12-29T02:59:52;5.40;99.90
25983;DHT22;13773;48.868;10.730;2023-12-29T03:02:18;5.50;99.90
25983;DHT22;13773;48.868;10.730;2023-12-29T03:04:44;5.50;99.90
25983;DHT22;13773;48.868;10.730;2023-12-29T03:07:10;5.60;99.90
25983;DHT22;13773;48.868;10.730;2023-12-29T03:09:35;5.60;99.90
25983;DHT22;13773;48.868;10.730;2023-12-29T03:12:01;5.70;99.90
25983;DHT22;13773;48.868;10.730;2023-12-29T03:14:26;5.60;99.90
25983;DHT22;13773;48.868;10.730;2023-12-29T03:16:52;5.60;99.90
25983;DHT22;13773;48.868;10.730;2023-12-29T03:19:18;5.60;99.90
25983;DHT22;13773;48.868;10.730;2023-12-29T03:21:43;5.60;99.90
25983;DHT22;13773;48.868;10.730;2023-12-29T03:24:09;5.60;99.90
25983;DHT22;13773;48.868;10.730;2023-12-29T03:26:35;5.70;99.90
25983;DHT22;13773;48.868;10.730;2023-12-29T03:29:00;5.80;99.90
25983;DHT22;13773;48.868;10.730;2023-12-29T03:31:26;5.80;99.90
25983;DHT22;13773;48.868;10.730;2023-12-29T03:33:52;5.80;99.90
25983;DHT22;13773;48.868;10.730;2023-12-29T03:36:17;5.80;99.90
25983;DHT22;13773;48.868;10.730;2023-12-29T03:38:43;5.90;99.90
25983;DHT22;13773;48.868;10.730;2023-12-29T03:41:09;5.90;99.90
25983;DHT22;13773;48.868;10.730;2023-12-29T03:43:34;5.90;99.90
25983;DHT22;13773;48.868;10.730;2023-12-29T03:46:00;5.90;99.90
25983;DHT22;13773;48.868;10.730;2023-12-29T03:48:26;5.80;99.90
25983;DHT22;13773;48.868;10.730;2023-12-29T03:50:51;5.80;99.90
25983;DHT22;13773;48.868;10.730;2023-12-29T03:53:17;5.80;99.90
25983;DHT22;13773;48.868;10.730;2023-12-29T03:55:44;5.80;99.90
25983;DHT22;13773;48.868;10.730;2023-12-29T03:58:10;5.70;99.90
25983;DHT22;13773;48.868;10.730;2023-12-29T04:00:36;5.50;99.90
25983;DHT22;13773;48.868;10.730;2023-12-29T04:03:02;5.40;99.90
25983;DHT22;13773;48.868;10.730;2023-12-29T04:05:28;5.40;99.90
25983;DHT22;13773;48.868;10.730;2023-12-29T04:07:54;5.30;99.90
25983;DHT22;13773;48.868;10.730;2023-12-29T04:10:19;5.40;99.90
25983;DHT22;13773;48.868;10.730;2023-12-29T04:12:45;5.30;99.90
25983;DHT22;13773;48.868;10.730;2023-12-29T04:15:11;5.40;99.90
25983;DHT22;13773;48.868;10.730;2023-12-29T04:17:37;5.40;99.90
25983;DHT22;13773;48.868;10.730;2023-12-29T04:20:03;5.50;99.90
25983;DHT22;13773;48.868;10.730;2023-12-29T04:22:29;5.60;99.90
25983;DHT22;13773;48.868;10.730;2023-12-29T04:24:55;5.80;99.90
25983;DHT22;13773;48.868;10.730;2023-12-29T04:27:21;5.90;99.90
25983;DHT22;13773;48.868;10.730;2023-12-29T04:29:46;6.10;99.90
25983;DHT22;13773;48.868;10.730;2023-12-29T04:32:12;6.10;99.90
25983;DHT22;13773;48.868;10.730;2023-12-29T04:34:38;6.20;99.90
25983;DHT22;13773;48.868;10.730;2023-12-29T04:37:03;6.20;99.90
25983;DHT22;13773;48.868;10.730;2023-12-29T04:39:29;6.30;99.90
25983;DHT22;13773;48.868;10.730;2023-12-29T04:41:55;6.30;99.90
25983;DHT22;13773;48.868;10.730;2023-12-29T04:44:20;6.20;99.90
25983;DHT22;13773;48.868;10.730;2023-12-29T04:46:46;6.20;99.90
25983;DHT22;13773;48.868;10.730;2023-12-29T04:49:11;6.10;99.90
25983;DHT22;13773;48.868;10.730;2023-12-29T04:51:37;6.10;99.90
25983;DHT22;13773;48.868;10.730;2023-12-29T04:54:03;6.00;99.90
25983;DHT22;13773;48.868;10.730;2023-12-29T04:56:29;6.00;99.90
25983;DHT22;13773;48.868;10.730;2023-12-29T04:58:54;6.10;99.90
25983;DHT22;13773;48.868;10.730;2023-12-29T05:01:22;6.00;99.90
25983;DHT22;13773;48.868;10.730;2023-12-29T05:03:47;6.00;99.90
25983;DHT22;13773;48.868;10.730;2023-12-29T05:06:13;6.00;99.90
25983;DHT22;13773;48.868;10.730;2023-12-29T05:08:38;6.00;99.90
25983;DHT22;13773;48.868;10.730;2023-12-29T05:11:04;6.00;99.90
25983;DHT22;13773;48.868;10.730;2023-12-29T05:13:30;6.00;99.90
25983;DHT22;13773;48.868;10.730;2023-12-29T05:15:55;6.10;99.90
25983;DHT22;13773;48.868;10.730;2023-12-29T05:18:21;6.10;99.90
25983;DHT22;13773;48.868;10.730;2023-12-29T05:20:47;6.10;99.90
25983;DHT22;13773;48.868;10.730;2023-12-29T05:23:12;6.10;99.90
25983;DHT22;13773;48.868;10.730;2023-12-29T05:25:39;6.20;99.90
25983;DHT22;13773;48.868;10.730;2023-12-29T05:28:04;6.20;99.90
25983;DHT22;13773;48.868;10.730;2023-12-29T05:30:30;6.20;99.90
25983;DHT22;13773;48.868;10.730;2023-12-29T05:32:57;6.20;99.90
25983;DHT22;13773;48.868;10.730;2023-12-29T05:35:23;6.10;99.90
25983;DHT22;13773;48.868;10.730;2023-12-29T05:37:48;6.10;99.90
25983;DHT22;13773;48.868;10.730;2023-12-29T05:40:15;6.00;99.90
25983;DHT22;13773;48.868;10.730;2023-12-29T05:42:41;6.00;99.90
25983;DHT22;13773;48.868;10.730;2023-12-29T05:45:07;5.90;99.90
25983;DHT22;13773;48.868;10.730;2023-12-29T05:47:33;5.90;99.90
25983;DHT22;13773;48.868;10.730;2023-12-29T05:49:58;3.70;99.90
25983;DHT22;13773;48.868;10.730;2023-12-29T05:52:24;5.90;99.90
25983;DHT22;13773;48.868;10.730;2023-12-29T05:54:50;5.90;99.90
25983;DHT22;13773;48.868;10.730;2023-12-29T05:57:15;5.90;99.90
25983;DHT22;13773;48.868;10.730;2023-12-29T05:59:41;5.90;99.90
25983;DHT22;13773;48.868;10.730;2023-12-29T06:02:07;6.00;99.90
25983;DHT22;13773;48.868;10.730;2023-12-29T06:04:32;6.00;99.90
25983;DHT22;13773;48.868;10.730;2023-12-29T06:06:58;6.00;99.90
25983;DHT22;13773;48.868;10.730;2023-12-29T06:09:24;6.00;99.90
25983;DHT22;13773;48.868;10.730;2023-12-29T06:11:50;5.90;99.90
25983;DHT22;13773;48.868;10.730;2023-12-29T06:14:16;6.00;99.90
25983;DHT22;13773;48.868;10.730;2023-12-29T06:16:41;6.10;99.90
25983;DHT22;13773;48.868;10.730;2023-12-29T06:19:08;6.10;99.90
25983;DHT22;13773;48.868;10.730;2023-12-29T06:21:43;6.10;99.90
25983;DHT22;13773;48.868;10.730;2023-12-29T06:24:09;6.20;99.90
25983;DHT22;13773;48.868;10.730;2023-12-29T06:26:35;6.30;99.90
25983;DHT22;13773;48.868;10.730;2023-12-29T06:29:01;6.30;99.90
25983;DHT22;13773;48.868;10.730;2023-12-29T06:31:26;6.30;99.90
25983;DHT22;13773;48.868;10.730;2023-12-29T06:33:52;6.30;99.90
25983;DHT22;13773;48.868;10.730;2023-12-29T06:36:18;6.30;99.90
25983;DHT22;13773;48.868;10.730;2023-12-29T06:38:43;6.30;99.90
25983;DHT22;13773;48.868;10.730;2023-12-29T06:41:14;6.40;99.90
25983;DHT22;13773;48.868;10.730;2023-12-29T06:43:39;6.30;99.90
25983;DHT22;13773;48.868;10.730;2023-12-29T06:46:05;6.40;99.90
25983;DHT22;13773;48.868;10.730;2023-12-29T06:48:31;6.30;99.90
25983;DHT22;13773;48.868;10.730;2023-12-29T06:50:57;6.40;99.90
25983;DHT22;13773;48.868;10.730;2023-12-29T06:53:23;6.30;99.90
25983;DHT22;13773;48.868;10.730;2023-12-29T06:55:48;6.30;99.90
25983;DHT22;13773;48.868;10.730;2023-12-29T06:58:14;6.40;99.90
25983;DHT22;13773;48.868;10.730;2023-12-29T07:00:40;6.40;99.90
25983;DHT22;13773;48.868;10.730;2023-12-29T07:03:05;6.40;99.90
25983;DHT22;13773;48.868;10.730;2023-12-29T07:05:31;6.40;99.90
25983;DHT22;13773;48.868;10.730;2023-12-29T07:07:57;6.40;99.90
25983;DHT22;13773;48.868;10.730;2023-12-29T07:10:23;6.40;99.90
25983;DHT22;13773;48.868;10.730;2023-12-29T07:12:48;6.40;99.90
25983;DHT22;13773;48.868;10.730;2023-12-29T07:15:14;6.30;99.90
25983;DHT22;13773;48.868;10.730;2023-12-29T07:17:40;6.30;99.90
25983;DHT22;13773;48.868;10.730;2023-12-29T07:20:06;6.30;99.90
25983;DHT22;13773;48.868;10.730;2023-12-29T07:22:32;6.30;99.90
25983;DHT22;13773;48.868;10.730;2023-12-29T07:24:58;6.40;99.90
25983;DHT22;13773;48.868;10.730;2023-12-29T07:27:24;6.40;99.90
25983;DHT22;13773;48.868;10.730;2023-12-29T07:29:49;6.40;99.90
25983;DHT22;13773;48.868;10.730;2023-12-29T07:32:15;6.40;99.90
25983;DHT22;13773;48.868;10.730;2023-12-29T07:34:41;6.40;99.90
25983;DHT22;13773;48.868;10.730;2023-12-29T07:37:06;6.40;99.90
25983;DHT22;13773;48.868;10.730;2023-12-29T07:39:32;6.40;99.90
25983;DHT22;13773;48.868;10.730;2023-12-29T07:41:58;6.40;99.90
25983;DHT22;13773;48.868;10.730;2023-12-29T07:44:23;6.30;99.90
25983;DHT22;13773;48.868;10.730;2023-12-29T07:46:49;6.20;99.90
25983;DHT22;13773;48.868;10.730;2023-12-29T07:49:14;6.20;99.90
25983;DHT22;13773;48.868;10.730;2023-12-29T07:51:41;6.20;99.90
25983;DHT22;13773;48.868;10.730;2023-12-29T07:54:08;6.20;99.90
25983;DHT22;13773;48.868;10.730;2023-12-29T07:56:34;6.20;99.90
25983;DHT22;13773;48.868;10.730;2023-12-29T07:59:02;6.30;99.90
25983;DHT22;13773;48.868;10.730;2023-12-29T08:01:28;6.30;99.90
25983;DHT22;13773;48.868;10.730;2023-12-29T08:03:53;6.40;99.90
25983;DHT22;13773;48.868;10.730;2023-12-29T08:06:19;6.30;99.90
25983;DHT22;13773;48.868;10.730;2023-12-29T08:08:45;6.30;99.90
25983;DHT22;13773;48.868;10.730;2023-12-29T08:11:14;6.30;99.90
25983;DHT22;13773;48.868;10.730;2023-12-29T08:13:44;6.40;99.90
25983;DHT22;13773;48.868;10.730;2023-12-29T08:16:12;6.40;99.90
25983;DHT22;13773;48.868;10.730;2023-12-29T08:18:38;6.40;99.90
25983;DHT22;13773;48.868;10.730;2023-12-29T08:21:04;6.50;99.90
25983;DHT22;13773;48.868;10.730;2023-12-29T08:23:29;6.60;99.90
25983;DHT22;13773;48.868;10.730;2023-12-29T08:25:58;6.60;99.90
25983;DHT22;13773;48.868;10.730;2023-12-29T08:28:24;6.60;99.90
25983;DHT22;13773;48.868;10.730;2023-12-29T08:30:50;6.60;99.90
25983;DHT22;13773;48.868;10.730;2023-12-29T08:33:15;6.60;99.90
25983;DHT22;13773;48.868;10.730;2023-12-29T08:35:42;6.60;99.90
25983;DHT22;13773;48.868;10.730;2023-12-29T08:38:07;6.60;99.90
25983;DHT22;13773;48.868;10.730;2023-12-29T08:40:33;6.60;99.90
25983;DHT22;13773;48.868;10.730;2023-12-29T08:42:59;6.60;99.90
25983;DHT22;13773;48.868;10.730;2023-12-29T08:45:26;6.70;99.90
25983;DHT22;13773;48.868;10.730;2023-12-29T08:47:52;6.80;99.90
25983;DHT22;13773;48.868;10.730;2023-12-29T08:50:18;6.90;99.90
25983;DHT22;13773;48.868;10.730;2023-12-29T08:52:43;6.90;99.90
25983;DHT22;13773;48.868;10.730;2023-12-29T08:55:09;6.90;99.90
25983;DHT22;13773;48.868;10.730;2023-12-29T08:57:35;7.00;99.90
25983;DHT22;13773;48.868;10.730;2023-12-29T09:00:01;7.10;99.90
25983;DHT22;13773;48.868;10.730;2023-12-29T09:02:26;7.20;99.90
25983;DHT22;13773;48.868;10.730;2023-12-29T09:04:52;7.30;99.90
25983;DHT22;13773;48.868;10.730;2023-12-29T09:07:18;7.40;99.90
25983;DHT22;13773;48.868;10.730;2023-12-29T09:09:43;7.50;99.90
25983;DHT22;13773;48.868;10.730;2023-12-29T09:12:09;7.60;99.90
25983;DHT22;13773;48.868;10.730;2023-12-29T09:14:35;7.60;99.90
25983;DHT22;13773;48.868;10.730;2023-12-29T09:17:01;7.60;99.90
25983;DHT22;13773;48.868;10.730;2023-12-29T09:19:26;7.60;99.90
25983;DHT22;13773;48.868;10.730;2023-12-29T09:21:53;7.70;99.90
25983;DHT22;13773;48.868;10.730;2023-12-29T09:24:18;7.70;99.90
25983;DHT22;13773;48.868;10.730;2023-12-29T09:26:44;7.70;99.90
25983;DHT22;13773;48.868;10.730;2023-12-29T09:29:10;7.60;99.90
25983;DHT22;13773;48.868;10.730;2023-12-29T09:31:35;7.70;99.90
25983;DHT22;13773;48.868;10.730;2023-12-29T09:34:01;7.70;99.90
25983;DHT22;13773;48.868;10.730;2023-12-29T09:36:27;7.60;99.90
25983;DHT22;13773;48.868;10.730;2023-12-29T09:38:53;7.60;99.90
25983;DHT22;13773;48.868;10.730;2023-12-29T09:41:20;7.70;99.90
25983;DHT22;13773;48.868;10.730;2023-12-29T09:43:49;7.70;99.90
25983;DHT22;13773;48.868;10.730;2023-12-29T09:46:18;7.70;99.90
25983;DHT22;13773;48.868;10.730;2023-12-29T09:48:47;7.70;99.90
25983;DHT22;13773;48.868;10.730;2023-12-29T09:51:14;7.70;99.90
25983;DHT22;13773;48.868;10.730;2023-12-29T09:53:41;7.70;99.90
25983;DHT22;13773;48.868;10.730;2023-12-29T09:56:08;7.70;99.90
25983;DHT22;13773;48.868;10.730;2023-12-29T09:58:37;7.70;99.90
25983;DHT22;13773;48.868;10.730;2023-12-29T10:01:04;7.70;99.90
25983;DHT22;13773;48.868;10.730;2023-12-29T10:03:30;7.70;99.90
25983;DHT22;13773;48.868;10.730;2023-12-29T10:06:00;7.80;99.90
25983;DHT22;13773;48.868;10.730;2023-12-29T10:08:27;7.90;99.90
25983;DHT22;13773;48.868;10.730;2023-12-29T10:10:55;8.00;99.90
25983;DHT22;13773;48.868;10.730;2023-12-29T10:13:23;8.10;99.90
25983;DHT22;13773;48.868;10.730;2023-12-29T10:16:04;8.20;99.90
25983;DHT22;13773;48.868;10.730;2023-12-29T10:18:45;8.20;99.90
25983;DHT22;13773;48.868;10.730;2023-12-29T10:21:27;8.10;99.90
25983;DHT22;13773;48.868;10.730;2023-12-29T10:24:12;8.10;99.90
25983;DHT22;13773;48.868;10.730;2023-12-29T10:26:41;8.20;99.90
25983;DHT22;13773;48.868;10.730;2023-12-29T10:29:09;8.30;99.90
25983;DHT22;13773;48.868;10.730;2023-12-29T10:31:36;8.30;99.90
25983;DHT22;13773;48.868;10.730;2023-12-29T10:34:17;8.30;99.90
25983;DHT22;13773;48.868;10.730;2023-12-29T10:36:50;8.30;99.90
25983;DHT22;13773;48.868;10.730;2023-12-29T10:39:15;8.30;99.90
25983;DHT22;13773;48.868;10.730;2023-12-29T10:41:41;8.30;99.90
25983;DHT22;13773;48.868;10.730;2023-12-29T10:44:08;8.30;99.90
25983;DHT22;13773;48.868;10.730;2023-12-29T10:46:33;8.20;99.90
25983;DHT22;13773;48.868;10.730;2023-12-29T10:49:12;8.30;99.90
25983;DHT22;13773;48.868;10.730;2023-12-29T10:51:39;8.30;99.90
25983;DHT22;13773;48.868;10.730;2023-12-29T10:54:05;8.30;99.90
25983;DHT22;13773;48.868;10.730;2023-12-29T10:56:32;8.30;99.90
25983;DHT22;13773;48.868;10.730;2023-12-29T10:59:02;8.30;99.90
25983;DHT22;13773;48.868;10.730;2023-12-29T11:01:35;8.30;99.90
25983;DHT22;13773;48.868;10.730;2023-12-29T11:04:02;8.30;99.90
25983;DHT22;13773;48.868;10.730;2023-12-29T11:06:30;8.40;99.90
25983;DHT22;13773;48.868;10.730;2023-12-29T11:09:04;8.40;99.90
25983;DHT22;13773;48.868;10.730;2023-12-29T11:11:31;8.50;99.90
25983;DHT22;13773;48.868;10.730;2023-12-29T11:13:57;8.50;99.90
25983;DHT22;13773;48.868;10.730;2023-12-29T11:16:24;8.60;99.90
25983;DHT22;13773;48.868;10.730;2023-12-29T11:18:51;8.70;99.90
25983;DHT22;13773;48.868;10.730;2023-12-29T11:21:20;8.70;99.90
25983;DHT22;13773;48.868;10.730;2023-12-29T11:23:47;8.90;99.90
25983;DHT22;13773;48.868;10.730;2023-12-29T11:26:13;9.00;99.90
25983;DHT22;13773;48.868;10.730;2023-12-29T11:28:39;9.10;99.90
25983;DHT22;13773;48.868;10.730;2023-12-29T11:31:06;9.20;99.90
25983;DHT22;13773;48.868;10.730;2023-12-29T11:33:38;9.20;99.90
25983;DHT22;13773;48.868;10.730;2023-12-29T11:36:13;9.10;99.90
25983;DHT22;13773;48.868;10.730;2023-12-29T11:41:32;9.00;99.90
25983;DHT22;13773;48.868;10.730;2023-12-29T11:43:59;9.00;99.90
25983;DHT22;13773;48.868;10.730;2023-12-29T11:46:42;9.10;99.90
25983;DHT22;13773;48.868;10.730;2023-12-29T11:49:11;9.00;99.90
25983;DHT22;13773;48.868;10.730;2023-12-29T11:51:40;8.90;99.90
25983;DHT22;13773;48.868;10.730;2023-12-29T11:54:07;8.90;99.90
25983;DHT22;13773;48.868;10.730;2023-12-29T11:56:37;8.80;99.90
25983;DHT22;13773;48.868;10.730;2023-12-29T11:59:20;8.80;99.90
25983;DHT22;13773;48.868;10.730;2023-12-29T12:01:57;8.80;99.90
25983;DHT22;13773;48.868;10.730;2023-12-29T12:04:39;8.90;99.90
25983;DHT22;13773;48.868;10.730;2023-12-29T12:09:38;9.00;99.90
25983;DHT22;13773;48.868;10.730;2023-12-29T12:12:05;9.00;99.90
25983;DHT22;13773;48.868;10.730;2023-12-29T12:14:51;9.00;99.90
25983;DHT22;13773;48.868;10.730;2023-12-29T12:17:33;9.10;99.90
25983;DHT22;13773;48.868;10.730;2023-12-29T12:20:07;9.10;99.90
25983;DHT22;13773;48.868;10.730;2023-12-29T12:22:35;9.20;99.90
25983;DHT22;13773;48.868;10.730;2023-12-29T12:25:01;9.20;99.90
25983;DHT22;13773;48.868;10.730;2023-12-29T12:27:29;9.30;99.90
25983;DHT22;13773;48.868;10.730;2023-12-29T12:29:56;9.30;99.90
25983;DHT22;13773;48.868;10.730;2023-12-29T12:32:25;9.20;99.90
25983;DHT22;13773;48.868;10.730;2023-12-29T12:34:51;9.30;99.90
25983;DHT22;13773;48.868;10.730;2023-12-29T12:37:27;9.20;99.90
25983;DHT22;13773;48.868;10.730;2023-12-29T12:39:54;9.20;99.90
25983;DHT22;13773;48.868;10.730;2023-12-29T12:42:20;9.10;99.90
25983;DHT22;13773;48.868;10.730;2023-12-29T12:44:56;9.10;99.90
25983;DHT22;13773;48.868;10.730;2023-12-29T12:47:36;9.10;99.90
25983;DHT22;13773;48.868;10.730;2023-12-29T12:50:02;9.10;99.90
25983;DHT22;13773;48.868;10.730;2023-12-29T12:52:33;9.10;99.90
25983;DHT22;13773;48.868;10.730;2023-12-29T12:54:59;9.10;99.90
25983;DHT22;13773;48.868;10.730;2023-12-29T12:57:25;9.10;99.90
25983;DHT22;13773;48.868;10.730;2023-12-29T12:59:53;9.20;99.90
25983;DHT22;13773;48.868;10.730;2023-12-29T13:02:20;9.20;99.90
25983;DHT22;13773;48.868;10.730;2023-12-29T13:04:47;9.20;99.90
25983;DHT22;13773;48.868;10.730;2023-12-29T13:07:17;9.20;99.90
25983;DHT22;13773;48.868;10.730;2023-12-29T13:09:44;9.30;99.90
25983;DHT22;13773;48.868;10.730;2023-12-29T13:12:13;9.30;99.90
25983;DHT22;13773;48.868;10.730;2023-12-29T13:14:40;9.30;99.90
25983;DHT22;13773;48.868;10.730;2023-12-29T13:17:07;9.30;99.90
25983;DHT22;13773;48.868;10.730;2023-12-29T13:19:33;9.40;99.90
25983;DHT22;13773;48.868;10.730;2023-12-29T13:22:00;9.40;99.90
25983;DHT22;13773;48.868;10.730;2023-12-29T13:24:26;9.40;99.90
25983;DHT22;13773;48.868;10.730;2023-12-29T13:26:55;9.40;99.90
25983;DHT22;13773;48.868;10.730;2023-12-29T13:29:22;9.40;99.90
25983;DHT22;13773;48.868;10.730;2023-12-29T13:31:54;9.50;99.90
25983;DHT22;13773;48.868;10.730;2023-12-29T13:37:36;9.40;99.90
25983;DHT22;13773;48.868;10.730;2023-12-29T13:40:17;9.40;99.90
25983;DHT22;13773;48.868;10.730;2023-12-29T13:42:48;9.40;99.90
25983;DHT22;13773;48.868;10.730;2023-12-29T13:45:16;9.40;99.90
25983;DHT22;13773;48.868;10.730;2023-12-29T13:47:45;9.30;99.90
25983;DHT22;13773;48.868;10.730;2023-12-29T13:50:11;9.20;99.90
25983;DHT22;13773;48.868;10.730;2023-12-29T13:52:37;9.10;99.90
25983;DHT22;13773;48.868;10.730;2023-12-29T13:55:04;9.10;99.90
25983;DHT22;13773;48.868;10.730;2023-12-29T13:57:31;9.10;99.90
25983;DHT22;13773;48.868;10.730;2023-12-29T13:59:57;9.10;99.90
25983;DHT22;13773;48.868;10.730;2023-12-29T14:02:27;9.00;99.90
25983;DHT22;13773;48.868;10.730;2023-12-29T14:07:45;9.00;99.90
25983;DHT22;13773;48.868;10.730;2023-12-29T14:10:12;9.00;99.90
25983;DHT22;13773;48.868;10.730;2023-12-29T14:12:37;9.00;99.90
25983;DHT22;13773;48.868;10.730;2023-12-29T14:15:04;8.90;99.90
25983;DHT22;13773;48.868;10.730;2023-12-29T14:17:30;8.90;99.90
25983;DHT22;13773;48.868;10.730;2023-12-29T14:19:57;12.10;99.90
25983;DHT22;13773;48.868;10.730;2023-12-29T14:22:28;8.90;99.90
25983;DHT22;13773;48.868;10.730;2023-12-29T14:25:05;9.30;99.90
25983;DHT22;13773;48.868;10.730;2023-12-29T14:27:31;8.90;99.90
25983;DHT22;13773;48.868;10.730;2023-12-29T14:29:57;8.80;99.90
25983;DHT22;13773;48.868;10.730;2023-12-29T14:32:24;8.80;99.90
25983;DHT22;13773;48.868;10.730;2023-12-29T14:34:50;8.80;99.90
25983;DHT22;13773;48.868;10.730;2023-12-29T14:37:21;8.80;99.90
25983;DHT22;13773;48.868;10.730;2023-12-29T14:39:50;8.80;99.90
25983;DHT22;13773;48.868;10.730;2023-12-29T14:42:16;8.70;99.90
25983;DHT22;13773;48.868;10.730;2023-12-29T14:44:45;8.70;99.90
25983;DHT22;13773;48.868;10.730;2023-12-29T14:47:10;8.70;99.90
25983;DHT22;13773;48.868;10.730;2023-12-29T14:49:37;8.70;99.90
25983;DHT22;13773;48.868;10.730;2023-12-29T14:52:03;8.70;99.90
25983;DHT22;13773;48.868;10.730;2023-12-29T14:54:29;8.70;99.90
25983;DHT22;13773;48.868;10.730;2023-12-29T14:56:54;8.60;99.90
25983;DHT22;13773;48.868;10.730;2023-12-29T14:59:20;8.60;99.90
25983;DHT22;13773;48.868;10.730;2023-12-29T15:01:46;8.60;99.90
25983;DHT22;13773;48.868;10.730;2023-12-29T15:04:11;8.60;99.90
25983;DHT22;13773;48.868;10.730;2023-12-29T15:06:39;8.60;99.90
25983;DHT22;13773;48.868;10.730;2023-12-29T15:09:05;8.60;99.90
25983;DHT22;13773;48.868;10.730;2023-12-29T15:11:33;8.50;99.90
25983;DHT22;13773;48.868;10.730;2023-12-29T15:13:58;8.50;99.90
25983;DHT22;13773;48.868;10.730;2023-12-29T15:16:24;8.50;99.90
25983;DHT22;13773;48.868;10.730;2023-12-29T15:18:50;8.50;99.90
25983;DHT22;13773;48.868;10.730;2023-12-29T15:21:15;8.50;99.90
25983;DHT22;13773;48.868;10.730;2023-12-29T15:23:41;8.50;99.90
25983;DHT22;13773;48.868;10.730;2023-12-29T15:26:07;8.50;99.90
25983;DHT22;13773;48.868;10.730;2023-12-29T15:28:32;8.40;99.90
25983;DHT22;13773;48.868;10.730;2023-12-29T15:30:58;8.40;99.90
25983;DHT22;13773;48.868;10.730;2023-12-29T15:33:23;8.40;99.90
25983;DHT22;13773;48.868;10.730;2023-12-29T15:35:50;8.50;99.90
25983;DHT22;13773;48.868;10.730;2023-12-29T15:38:16;8.50;99.90
25983;DHT22;13773;48.868;10.730;2023-12-29T15:40:42;8.50;99.90